createdAt,value
2023-01-06T00:01:34.257Z,77.58
2023-01-06T00:04:03.031Z,78.01
2023-01-06T00:06:31.212Z,78.13
2023-01-06T00:09:02.315Z,77.60
2023-01-06T00:11:30.627Z,78.41
2023-01-06T00:13:57.545Z,78.80
2023-01-06T00:16:24.793Z,77.71
2023-01-06T00:18:59.659Z,77.36
2023-01-06T00:21:27.087Z,77.71
2023-01-06T00:23:54.338Z,77.71
2023-01-06T00:26:21.619Z,77.74
2023-01-06T00:28:48.546Z,77.97
2023-01-06T00:31:17.064Z,77.79
2023-01-06T00:33:44.838Z,77.95
2023-01-06T00:36:13.759Z,78.04
2023-01-06T00:38:41.252Z,77.91
2023-01-06T00:41:31.748Z,77.87
2023-01-06T00:43:59.859Z,78.40
2023-01-06T00:46:29.980Z,78.43
2023-01-06T00:49:07.381Z,78.95
2023-01-06T00:51:40.339Z,78.92
2023-01-06T00:54:09.343Z,79.02
2023-01-06T00:56:46.131Z,79.04
2023-01-06T00:59:15.614Z,78.84
2023-01-06T01:01:44.006Z,78.83
2023-01-06T01:04:11.777Z,78.54
2023-01-06T01:06:39.342Z,78.28
2023-01-06T01:09:07.796Z,77.98
2023-01-06T01:11:53.874Z,78.31
2023-01-06T01:14:21.259Z,78.57
2023-01-06T01:16:48.229Z,78.35
2023-01-06T01:19:15.925Z,78.46
2023-01-06T01:21:43.133Z,78.58
2023-01-06T01:24:10.834Z,78.23
2023-01-06T01:26:38.785Z,78.20
2023-01-06T01:29:05.949Z,78.00
2023-01-06T01:31:33.653Z,77.97
2023-01-06T01:34:01.910Z,77.96
2023-01-06T01:36:29.032Z,77.86
2023-01-06T01:38:57.921Z,78.16
2023-01-06T01:41:26.808Z,78.11
2023-01-06T01:44:03.423Z,77.72
2023-01-06T01:46:40.007Z,78.28
2023-01-06T01:49:26.946Z,78.40
2023-01-06T01:51:56.664Z,78.52
2023-01-06T01:54:29.035Z,78.79
2023-01-06T01:57:06.259Z,78.42
2023-01-06T01:59:36.927Z,78.98
2023-01-06T02:02:04.411Z,78.99
2023-01-06T02:04:35.118Z,79.31
2023-01-06T02:07:03.048Z,79.35
2023-01-06T02:09:37.204Z,79.68
2023-01-06T02:12:05.220Z,79.61
2023-01-06T02:14:32.161Z,79.45
2023-01-06T02:17:23.097Z,79.03
2023-01-06T02:20:27.084Z,79.44
2023-01-06T02:23:24.217Z,79.27
2023-01-06T02:26:44.395Z,79.35
2023-01-06T02:30:06.190Z,78.64
2023-01-06T02:32:52.024Z,78.66
2023-01-06T02:35:21.606Z,78.41
2023-01-06T02:38:38.111Z,78.44
2023-01-06T02:41:24.312Z,78.49
2023-01-06T02:44:13.533Z,78.66
2023-01-06T02:47:21.404Z,78.86
2023-01-06T02:50:46.847Z,78.40
2023-01-06T02:53:48.010Z,78.12
2023-01-06T02:56:15.456Z,78.02
2023-01-06T02:58:58.059Z,78.47
2023-01-06T03:01:32.947Z,78.44
2023-01-06T03:04:06.084Z,78.75
2023-01-06T03:06:35.861Z,78.62
2023-01-06T03:09:05.543Z,78.85
2023-01-06T03:11:34.900Z,78.97
2023-01-06T03:14:25.116Z,78.65
2023-01-06T03:16:52.920Z,78.88
2023-01-06T03:19:19.825Z,78.92
2023-01-06T03:21:49.920Z,79.00
2023-01-06T03:24:17.694Z,78.67
2023-01-06T03:26:46.637Z,78.95
2023-01-06T03:29:17.091Z,78.84
2023-01-06T03:32:33.145Z,78.54
2023-01-06T03:35:08.592Z,78.26
2023-01-06T03:37:38.203Z,78.49
2023-01-06T03:41:00.465Z,78.89
2023-01-06T03:43:58.043Z,78.70
2023-01-06T03:46:39.051Z,79.10
2023-01-06T03:49:13.295Z,79.23
2023-01-06T03:51:58.370Z,79.65
2023-01-06T03:55:06.452Z,78.73
2023-01-06T03:57:47.089Z,78.61
2023-01-06T04:00:21.412Z,78.61
2023-01-06T04:02:48.631Z,78.24
2023-01-06T04:05:20.151Z,78.18
2023-01-06T04:07:47.420Z,78.07
2023-01-06T04:10:17.766Z,78.28
2023-01-06T04:12:44.976Z,77.87
2023-01-06T04:15:22.296Z,77.67
2023-01-06T04:17:50.051Z,77.84
2023-01-06T04:20:22.650Z,77.25
2023-01-06T04:22:49.584Z,77.08
2023-01-06T04:25:16.555Z,77.38
2023-01-06T04:27:44.101Z,77.43
2023-01-06T04:30:11.780Z,77.56
2023-01-06T04:32:39.489Z,77.91
2023-01-06T04:35:07.658Z,77.86
2023-01-06T04:37:35.305Z,78.38
2023-01-06T04:40:02.559Z,78.63
2023-01-06T04:42:29.505Z,78.47
2023-01-06T04:44:56.343Z,78.81
2023-01-06T04:47:23.195Z,78.87
2023-01-06T04:49:50.030Z,79.00
2023-01-06T04:52:16.862Z,78.98
2023-01-06T04:54:43.701Z,78.75
2023-01-06T04:57:10.544Z,78.65
2023-01-06T04:59:37.362Z,78.85
2023-01-06T05:02:04.315Z,78.52
2023-01-06T05:04:40.014Z,78.97
2023-01-06T05:07:13.648Z,79.21
2023-01-06T05:09:40.507Z,78.82
2023-01-06T05:12:07.971Z,78.82
2023-01-06T05:14:34.938Z,79.12
2023-01-06T05:17:01.748Z,78.74
2023-01-06T05:19:28.557Z,79.33
2023-01-06T05:21:55.387Z,78.76
2023-01-06T05:24:22.202Z,78.67
2023-01-06T05:26:49.118Z,77.95
2023-01-06T05:29:19.575Z,78.34
2023-01-06T05:31:46.565Z,77.66
2023-01-06T05:34:13.592Z,77.70
2023-01-06T05:36:40.388Z,77.98
2023-01-06T05:39:07.222Z,78.64
2023-01-06T05:41:34.065Z,78.22
2023-01-06T05:44:00.873Z,78.67
2023-01-06T05:46:27.791Z,78.84
2023-01-06T05:48:54.636Z,78.71
2023-01-06T05:51:21.468Z,78.15
2023-01-06T05:53:48.988Z,78.41
2023-01-06T05:56:19.342Z,77.59
2023-01-06T05:58:49.091Z,78.21
2023-01-06T06:01:26.290Z,78.77
2023-01-06T06:03:54.937Z,78.57
2023-01-06T06:06:25.389Z,77.86
2023-01-06T06:08:52.238Z,78.32
2023-01-06T06:11:20.097Z,78.74
2023-01-06T06:13:49.056Z,78.60
2023-01-06T06:16:17.891Z,78.74
2023-01-06T06:18:49.351Z,78.71
2023-01-06T06:21:20.149Z,78.13
2023-01-06T06:23:47.324Z,77.64
2023-01-06T06:26:14.506Z,77.70
2023-01-06T06:28:42.311Z,77.74
2023-01-06T06:31:25.213Z,78.17
2023-01-06T06:33:58.046Z,78.39
2023-01-06T06:36:25.951Z,78.29
2023-01-06T06:38:54.289Z,78.28
2023-01-06T06:41:23.280Z,78.73
2023-01-06T06:43:51.035Z,78.68
2023-01-06T06:46:19.285Z,78.53
2023-01-06T06:48:46.292Z,78.89
2023-01-06T06:51:19.207Z,78.91
2023-01-06T06:53:46.905Z,78.56
2023-01-06T06:56:16.060Z,78.98
2023-01-06T06:58:42.893Z,78.97
2023-01-06T07:01:14.000Z,78.85
2023-01-06T07:03:41.608Z,78.60
2023-01-06T07:06:20.439Z,78.85
2023-01-06T07:08:48.488Z,78.81
2023-01-06T07:11:15.580Z,79.76
2023-01-06T07:13:42.821Z,80.27
2023-01-06T07:16:11.849Z,79.91
2023-01-06T07:18:39.516Z,79.43
2023-01-06T07:21:07.367Z,79.49
2023-01-06T07:23:34.504Z,79.87
2023-01-06T07:26:02.897Z,79.24
2023-01-06T07:28:32.248Z,79.44
2023-01-06T07:31:00.222Z,79.64
2023-01-06T07:33:27.586Z,79.12
2023-01-06T07:36:03.902Z,79.13
2023-01-06T07:38:30.764Z,78.58
2023-01-06T07:41:01.587Z,79.01
2023-01-06T07:43:28.705Z,79.56
2023-01-06T07:45:55.863Z,79.75
2023-01-06T07:48:22.717Z,79.92
2023-01-06T07:50:49.573Z,80.25
2023-01-06T07:53:16.507Z,78.77
2023-01-06T07:55:50.400Z,78.11
2023-01-06T07:58:18.371Z,78.61
2023-01-06T08:00:45.545Z,77.74
2023-01-06T08:03:12.804Z,77.05
2023-01-06T08:05:43.481Z,74.65
2023-01-06T08:08:12.179Z,74.38
2023-01-06T08:10:41.195Z,74.20
2023-01-06T08:13:11.522Z,70.85
2023-01-06T08:15:39.423Z,71.24
2023-01-06T08:18:16.500Z,69.68
2023-01-06T08:20:43.489Z,69.15
2023-01-06T08:23:10.320Z,68.65
2023-01-06T08:25:37.226Z,68.25
2023-01-06T08:28:04.529Z,67.77
2023-01-06T08:30:31.467Z,66.18
2023-01-06T08:32:59.980Z,65.34
2023-01-06T08:35:27.432Z,64.81
2023-01-06T08:37:54.270Z,62.62
2023-01-06T08:40:21.153Z,62.45
2023-01-06T08:42:48.385Z,60.48
2023-01-06T08:45:15.442Z,58.60
2023-01-06T08:47:42.303Z,59.18
2023-01-06T08:50:09.254Z,59.28
2023-01-06T08:52:36.188Z,58.63
2023-01-06T08:55:03.125Z,58.66
2023-01-06T08:57:30.008Z,58.06
2023-01-06T08:59:56.826Z,56.82
2023-01-06T09:02:27.342Z,56.31
2023-01-06T09:04:54.374Z,53.78
2023-01-06T09:07:21.289Z,51.69
2023-01-06T09:09:48.153Z,51.31
2023-01-06T09:12:15.004Z,50.95
2023-01-06T09:14:41.825Z,51.65
2023-01-06T09:17:08.632Z,50.60
2023-01-06T09:19:35.510Z,50.78
2023-01-06T09:22:02.355Z,48.74
2023-01-06T09:24:29.355Z,48.30
2023-01-06T09:26:56.187Z,47.37
2023-01-06T09:29:23.156Z,46.21
2023-01-06T09:31:49.968Z,44.83
2023-01-06T09:34:16.816Z,45.14
2023-01-06T09:36:43.712Z,44.29
2023-01-06T09:39:10.532Z,45.04
2023-01-06T09:41:47.952Z,43.81
2023-01-06T09:44:30.013Z,48.99
2023-01-06T09:46:59.144Z,49.98
2023-01-06T09:49:53.579Z,51.62
2023-01-06T09:52:41.732Z,51.91
2023-01-06T09:55:37.542Z,50.04
2023-01-06T09:58:14.673Z,50.17
2023-01-06T10:00:49.368Z,48.67
2023-01-06T10:03:25.801Z,48.53
2023-01-06T10:06:40.837Z,47.27
2023-01-06T10:09:41.198Z,47.64
2023-01-06T10:13:03.984Z,45.23
2023-01-06T10:16:13.078Z,44.52
2023-01-06T10:19:22.984Z,45.61
2023-01-06T10:22:04.805Z,45.93
2023-01-06T10:25:20.762Z,46.92
2023-01-06T10:28:20.109Z,46.07
2023-01-06T10:30:51.462Z,46.59
2023-01-06T10:33:31.168Z,47.50
2023-01-06T10:35:59.445Z,46.19
2023-01-06T10:38:37.998Z,47.30
2023-01-06T10:41:41.770Z,47.24
2023-01-06T10:44:11.668Z,47.00
2023-01-06T10:46:39.324Z,47.49
2023-01-06T10:49:17.412Z,46.48
2023-01-06T10:51:54.832Z,48.97
2023-01-06T10:54:33.807Z,47.24
2023-01-06T10:57:05.510Z,45.98
2023-01-06T10:59:32.333Z,44.82
2023-01-06T11:01:59.330Z,44.76
2023-01-06T11:04:28.223Z,44.07
2023-01-06T11:07:03.178Z,42.56
2023-01-06T11:09:33.727Z,42.96
2023-01-06T11:12:10.908Z,41.98
2023-01-06T11:14:39.093Z,43.87
2023-01-06T11:17:15.586Z,45.08
2023-01-06T11:19:46.490Z,44.21
2023-01-06T11:22:45.873Z,42.92
2023-01-06T11:25:21.818Z,44.76
2023-01-06T11:28:09.495Z,43.71
2023-01-06T11:30:51.951Z,45.81
2023-01-06T11:33:22.631Z,43.50
2023-01-06T11:35:50.134Z,41.94
2023-01-06T11:38:20.329Z,40.28
2023-01-06T11:40:50.049Z,41.47
2023-01-06T11:43:25.282Z,47.43
2023-01-06T11:45:58.545Z,47.68
2023-01-06T11:48:26.471Z,47.83
2023-01-06T11:50:58.626Z,46.01
2023-01-06T11:53:26.327Z,42.99
2023-01-06T11:56:07.057Z,44.01
2023-01-06T11:59:09.743Z,42.40
2023-01-06T12:01:43.713Z,42.39
2023-01-06T12:04:39.291Z,42.10
2023-01-06T12:07:36.059Z,40.90
2023-01-06T12:10:16.066Z,42.06
2023-01-06T12:12:42.997Z,40.44
2023-01-06T12:15:18.954Z,39.04
2023-01-06T12:17:53.418Z,39.52
2023-01-06T12:20:33.665Z,38.50
2023-01-06T12:23:24.176Z,38.58
2023-01-06T12:25:56.159Z,42.61
2023-01-06T12:28:32.148Z,42.84
2023-01-06T12:31:10.439Z,45.49
2023-01-06T12:33:57.446Z,43.88
2023-01-06T12:36:30.481Z,44.50
2023-01-06T12:39:29.775Z,51.31
2023-01-06T12:42:33.855Z,50.36
2023-01-06T12:45:16.282Z,52.76
2023-01-06T12:47:55.912Z,53.21
2023-01-06T12:50:36.048Z,49.45
2023-01-06T12:53:21.044Z,48.93
2023-01-06T12:56:18.168Z,45.59
2023-01-06T12:59:09.224Z,44.42
2023-01-06T13:01:45.921Z,45.92
2023-01-06T13:04:45.604Z,43.62
2023-01-06T13:07:51.117Z,43.82
2023-01-06T13:10:35.028Z,47.13
2023-01-06T13:13:26.043Z,48.96
2023-01-06T13:15:54.743Z,52.78
2023-01-06T13:18:36.164Z,55.14
2023-01-06T13:21:09.185Z,57.83
2023-01-06T13:24:16.139Z,58.51
2023-01-06T13:27:17.693Z,59.06
2023-01-06T13:29:58.364Z,59.99
2023-01-06T13:33:17.853Z,60.44
2023-01-06T13:36:05.996Z,61.09
2023-01-06T13:38:50.105Z,62.15
2023-01-06T13:41:21.948Z,62.88
2023-01-06T13:43:50.728Z,62.50
2023-01-06T13:46:20.902Z,63.54
2023-01-06T13:48:53.958Z,63.78
2023-01-06T13:51:39.783Z,64.03
2023-01-06T13:54:06.824Z,64.33
2023-01-06T13:56:35.391Z,64.31
2023-01-06T13:59:24.927Z,63.77
2023-01-06T14:01:52.970Z,63.67
2023-01-06T14:04:42.747Z,63.98
2023-01-06T14:07:11.132Z,63.70
2023-01-06T14:09:46.838Z,64.56
2023-01-06T14:12:24.402Z,64.05
2023-01-06T14:15:02.159Z,64.41
2023-01-06T14:17:40.100Z,64.53
2023-01-06T14:20:36.263Z,65.09
2023-01-06T14:23:23.859Z,64.89
2023-01-06T14:25:54.939Z,64.92
2023-01-06T14:28:21.876Z,64.90
2023-01-06T14:30:50.693Z,65.17
2023-01-06T14:33:38.716Z,65.40
2023-01-06T14:36:27.030Z,65.62
2023-01-06T14:39:01.294Z,65.96
2023-01-06T14:42:15.977Z,66.53
2023-01-06T14:44:50.935Z,66.21
2023-01-06T14:47:33.961Z,66.88
2023-01-06T14:50:15.929Z,66.79
2023-01-06T14:52:50.629Z,66.73
2023-01-06T14:55:20.424Z,66.90
2023-01-06T14:57:50.527Z,67.09
2023-01-06T15:00:24.216Z,67.08
2023-01-06T15:02:55.163Z,67.58
2023-01-06T15:05:34.778Z,67.68
2023-01-06T15:08:06.627Z,67.17
2023-01-06T15:10:46.898Z,67.44
2023-01-06T15:13:27.281Z,66.98
2023-01-06T15:16:02.199Z,67.05
2023-01-06T15:18:29.560Z,67.28
2023-01-06T15:20:57.014Z,68.26
2023-01-06T15:23:24.215Z,68.12
2023-01-06T15:25:55.705Z,68.22
2023-01-06T15:28:31.286Z,68.34
2023-01-06T15:31:00.060Z,68.09
2023-01-06T15:33:47.348Z,68.10
2023-01-06T15:36:23.154Z,67.42
2023-01-06T15:38:51.250Z,67.67
2023-01-06T15:41:32.901Z,67.87
2023-01-06T15:44:02.750Z,68.00
2023-01-06T15:46:40.495Z,67.64
2023-01-06T15:49:33.097Z,67.66
2023-01-06T15:52:13.812Z,67.06
2023-01-06T15:54:46.029Z,66.99
2023-01-06T15:57:17.066Z,67.17
2023-01-06T16:00:00.175Z,66.82
2023-01-06T16:02:30.885Z,66.87
2023-01-06T16:04:59.508Z,66.99
2023-01-06T16:07:39.716Z,67.10
2023-01-06T16:10:35.953Z,67.30
2023-01-06T16:13:26.137Z,67.54
2023-01-06T16:15:59.981Z,67.86
2023-01-06T16:18:33.883Z,67.75
2023-01-06T16:21:23.811Z,67.52
2023-01-06T16:23:56.886Z,67.76
2023-01-06T16:26:28.200Z,68.20
2023-01-06T16:29:01.997Z,68.25
2023-01-06T16:31:35.030Z,68.32
2023-01-06T16:34:32.703Z,68.49
2023-01-06T16:37:01.104Z,68.64
2023-01-06T16:39:28.342Z,68.60
2023-01-06T16:42:01.130Z,68.84
2023-01-06T16:44:31.227Z,68.62
2023-01-06T16:46:58.839Z,68.00
2023-01-06T16:49:25.900Z,68.53
2023-01-06T16:51:54.717Z,68.95
2023-01-06T16:54:23.328Z,69.00
2023-01-06T16:56:52.077Z,69.58
2023-01-06T16:59:20.473Z,69.56
2023-01-06T17:01:48.507Z,69.36
2023-01-06T17:04:16.136Z,69.28
2023-01-06T17:06:45.403Z,68.97
2023-01-06T17:09:23.403Z,69.18
2023-01-06T17:11:54.190Z,69.25
2023-01-06T17:14:23.196Z,69.14
2023-01-06T17:16:50.773Z,69.45
2023-01-06T17:19:26.768Z,69.32
2023-01-06T17:22:28.557Z,69.43
2023-01-06T17:24:59.400Z,69.49
2023-01-06T17:27:30.165Z,69.53
2023-01-06T17:30:01.489Z,69.46
2023-01-06T17:32:40.038Z,69.22
2023-01-06T17:35:33.201Z,68.99
2023-01-06T17:38:11.968Z,69.19
2023-01-06T17:40:39.268Z,69.00
2023-01-06T17:43:23.779Z,69.36
2023-01-06T17:45:52.086Z,69.48
2023-01-06T17:48:19.408Z,69.54
2023-01-06T17:50:53.878Z,69.38
2023-01-06T17:53:49.954Z,69.43
2023-01-06T17:56:17.420Z,69.24
2023-01-06T17:58:46.092Z,69.45
2023-01-06T18:01:22.533Z,69.14
2023-01-06T18:03:51.174Z,69.46
2023-01-06T18:06:28.551Z,69.42
2023-01-06T18:09:19.281Z,69.68
2023-01-06T18:11:50.956Z,69.73
2023-01-06T18:14:24.347Z,69.83
2023-01-06T18:16:54.781Z,69.65
2023-01-06T18:19:37.646Z,69.48
2023-01-06T18:22:21.310Z,69.60
2023-01-06T18:24:51.246Z,69.85
2023-01-06T18:27:27.938Z,69.63
2023-01-06T18:30:01.925Z,69.37
2023-01-06T18:32:33.543Z,69.58
2023-01-06T18:35:16.880Z,69.46
2023-01-06T18:37:44.512Z,69.13
2023-01-06T18:40:18.575Z,69.50
2023-01-06T18:42:49.512Z,69.89
2023-01-06T18:45:28.004Z,70.01
2023-01-06T18:48:08.147Z,70.45
2023-01-06T18:50:41.818Z,70.30
2023-01-06T18:53:14.211Z,70.58
2023-01-06T18:55:51.082Z,70.29
2023-01-06T18:58:47.334Z,70.03
2023-01-06T19:01:29.949Z,69.60
2023-01-06T19:04:02.619Z,69.64
2023-01-06T19:06:47.041Z,69.56
2023-01-06T19:09:24.426Z,69.71
2023-01-06T19:12:02.191Z,69.58
2023-01-06T19:14:34.625Z,69.52
2023-01-06T19:17:02.395Z,69.98
2023-01-06T19:19:38.170Z,69.43
2023-01-06T19:22:20.040Z,69.39
2023-01-06T19:25:09.640Z,69.34
2023-01-06T19:28:16.343Z,69.41
2023-01-06T19:30:54.674Z,69.17
2023-01-06T19:34:06.088Z,69.17
2023-01-06T19:36:48.701Z,69.26
2023-01-06T19:39:33.625Z,69.08
2023-01-06T19:42:30.314Z,69.28
2023-01-06T19:45:10.328Z,68.95
2023-01-06T19:47:39.843Z,68.79
2023-01-06T19:50:27.039Z,68.77
2023-01-06T19:52:58.817Z,68.88
2023-01-06T19:55:33.455Z,68.70
2023-01-06T19:58:08.132Z,68.73
2023-01-06T20:00:50.242Z,68.53
2023-01-06T20:03:27.513Z,68.22
2023-01-06T20:05:54.529Z,68.12
2023-01-06T20:08:21.405Z,67.98
2023-01-06T20:10:48.294Z,68.14
2023-01-06T20:13:15.147Z,67.90
2023-01-06T20:15:42.072Z,68.06
2023-01-06T20:18:09.036Z,68.04
2023-01-06T20:20:35.954Z,68.23
2023-01-06T20:23:02.845Z,68.33
2023-01-06T20:25:29.890Z,68.09
2023-01-06T20:27:56.859Z,68.12
2023-01-06T20:30:23.919Z,68.26
2023-01-06T20:32:50.763Z,68.01
2023-01-06T20:35:17.879Z,68.32
2023-01-06T20:37:44.843Z,68.80
2023-01-06T20:40:12.151Z,68.63
2023-01-06T20:42:38.990Z,68.61
2023-01-06T20:45:06.583Z,68.66
2023-01-06T20:47:33.471Z,68.74
2023-01-06T20:50:00.318Z,68.79
2023-01-06T20:52:27.118Z,68.74
2023-01-06T20:54:53.901Z,69.18
2023-01-06T20:57:20.986Z,69.03
2023-01-06T20:59:47.851Z,68.94
2023-01-06T21:02:14.817Z,68.93
2023-01-06T21:04:41.807Z,69.15
2023-01-06T21:07:08.763Z,69.42
2023-01-06T21:09:35.800Z,69.07
2023-01-06T21:12:02.640Z,69.64
2023-01-06T21:14:30.339Z,69.52
2023-01-06T21:16:57.257Z,69.75
2023-01-06T21:19:24.150Z,69.03
2023-01-06T21:21:51.047Z,68.97
2023-01-06T21:24:17.909Z,68.55
2023-01-06T21:26:44.759Z,68.75
2023-01-06T21:29:11.612Z,68.46
2023-01-06T21:31:40.288Z,68.47
2023-01-06T21:34:07.350Z,68.72
2023-01-06T21:36:34.193Z,68.33
2023-01-06T21:39:01.256Z,68.64
2023-01-06T21:41:46.452Z,68.71
2023-01-06T21:44:13.289Z,68.88
2023-01-06T21:46:40.214Z,69.18
2023-01-06T21:49:07.203Z,69.27
2023-01-06T21:51:35.035Z,69.10
2023-01-06T21:54:03.093Z,68.98
2023-01-06T21:56:30.008Z,68.78
2023-01-06T21:58:58.333Z,68.66
2023-01-06T22:01:26.099Z,68.54
2023-01-06T22:03:53.018Z,68.77
2023-01-06T22:06:21.568Z,69.01
2023-01-06T22:08:51.445Z,69.16
2023-01-06T22:11:18.399Z,68.92
2023-01-06T22:13:45.590Z,68.89
2023-01-06T22:16:12.983Z,69.36
2023-01-06T22:18:40.278Z,69.03
2023-01-06T22:21:07.860Z,68.81
2023-01-06T22:23:36.643Z,68.56
2023-01-06T22:26:03.865Z,68.61
2023-01-06T22:28:30.912Z,68.61
2023-01-06T22:30:58.161Z,69.04
2023-01-06T22:33:25.022Z,69.31
2023-01-06T22:35:51.923Z,69.25
2023-01-06T22:38:18.836Z,69.12
2023-01-06T22:40:46.985Z,69.27
2023-01-06T22:43:13.866Z,69.51
2023-01-06T22:45:40.687Z,69.45
2023-01-06T22:48:07.597Z,69.03
2023-01-06T22:50:34.376Z,69.21
2023-01-06T22:53:01.329Z,68.64
2023-01-06T22:55:28.153Z,68.88
2023-01-06T22:57:55.012Z,69.31
2023-01-06T23:00:21.943Z,69.78
2023-01-06T23:02:48.956Z,69.62
2023-01-06T23:05:15.947Z,69.69
2023-01-06T23:07:43.989Z,69.96
2023-01-06T23:10:14.110Z,70.22
2023-01-06T23:12:42.092Z,70.11
2023-01-06T23:15:09.800Z,70.25
2023-01-06T23:17:37.887Z,70.46
2023-01-06T23:20:06.021Z,70.36
2023-01-06T23:22:32.851Z,70.27
2023-01-06T23:24:59.755Z,70.41
2023-01-06T23:27:26.596Z,70.41
2023-01-06T23:29:53.483Z,70.81
2023-01-06T23:32:20.385Z,70.86
2023-01-06T23:34:47.724Z,70.72
2023-01-06T23:37:14.564Z,71.07
2023-01-06T23:39:41.359Z,70.77
2023-01-06T23:42:08.186Z,70.88
2023-01-06T23:44:35.038Z,71.13
2023-01-06T23:47:01.925Z,70.87
2023-01-06T23:49:28.751Z,70.90
2023-01-06T23:51:55.716Z,70.53
2023-01-06T23:54:22.733Z,70.89
2023-01-06T23:56:49.677Z,71.19
2023-01-06T23:59:16.558Z,71.21
